Home > Products > Valid Products > TAF

000
FTUS41 KLWX 272300
TAFBWI
TAF
KBWI 272332Z 2800/2906 29004KT P6SM FEW170 SCT250
     FM281600 30006KT P6SM FEW100
     FM290100 00000KT P6SM FEW050=



000
FTUS41 KLWX 272300
TAFIAD
TAF
KIAD 272332Z 2800/2906 27004KT P6SM FEW140 SCT250
     FM280700 33005KT P6SM SCT250
     FM280900 35005KT 5SM BR FEW025 FEW100
     FM281000 34005KT P6SM FEW025 FEW100
     FM281600 32009KT P6SM FEW100
     FM290000 VRB03KT P6SM FEW050=



000
FTUS41 KLWX 272300
TAFMTN
TAF
KMTN 272332Z 2800/2824 14003KT P6SM FEW200
     FM282000 30007KT P6SM SCT050
      AMD NOT SKED 2802/2812=



000
FTUS41 KLWX 272300
TAFCHO
TAF
KCHO 272332Z 2800/2824 16003KT P6SM SKC
     FM280700 00000KT P6SM SCT250
     FM280900 VRB03KT 3SM BR FEW025 FEW100
     FM281100 00000KT 5SM BR FEW025 FEW100
     FM281200 00000KT P6SM SKC=



000
FTUS41 KLWX 272300
TAFDCA
TAF
KDCA 272332Z 2800/2824 26007KT P6SM FEW070 SCT250
     FM280700 00000KT P6SM SCT250
     FM281200 35006KT P6SM SKC
     FM281800 29007KT P6SM FEW050=



000
FTUS41 KLWX 272300
TAFMRB
TAF
KMRB 272332Z 2800/2824 18004KT P6SM VCTS BKN060CB
     FM280400 34007KT P6SM BKN250
     FM280800 34007KT 5SM BR SCT250
     FM280900 34007KT 3SM BR FEW025 SCT100
     FM281200 32005KT P6SM FEW025 FEW100=



000
FTUS41 KLWX 272100 AAA
TAFBWI
TAF AMD
KBWI 272101Z 2721/2824 26006KT P6SM FEW060
     FM280000 00000KT P6SM FEW060
     FM281600 30006KT P6SM FEW100=



000
FTUS41 KLWX 272100 AAA
TAFIAD
TAF AMD
KIAD 272101Z 2721/2824 28005KT P6SM FEW200
     FM280600 33005KT P6SM SCT090
     FM280900 35005KT 5SM BR FEW025
     FM281000 34005KT P6SM FEW100=



000
FTUS41 KLWX 272100 AAA
TAFDCA
TAF AMD
KDCA 272101Z 2721/2818 17007KT P6SM FEW060
     FM280600 VRB03KT P6SM SCT090
     FM280700 00000KT P6SM SCT250
     FM281200 35006KT P6SM SKC=



000
FTUS41 KLWX 271700
TAFCHO
TAF
KCHO 271731Z 2718/2818 VRB03KT P6SM FEW045
     FM280000 00000KT P6SM BKN090
     FM280900 00000KT 3SM BR FEW025 FEW100
     FM281200 00000KT P6SM SKC=



000
FTUS41 KLWX 271700
TAFBWI
TAF
KBWI 271731Z 2718/2824 20005KT P6SM FEW050
     FM271900 25006KT P6SM SCT050
     FM280800 32008KT P6SM FEW050=



000
FTUS41 KLWX 271700
TAFDCA
TAF
KDCA 271731Z 2718/2818 17006KT P6SM FEW050
     FM271900 22006KT P6SM SCT050
     FM280000 00000KT P6SM BKN050
     FM280700 32008KT P6SM SCT250=



000
FTUS41 KLWX 271700
TAFMRB
TAF
KMRB 271731Z 2718/2818 VRB03KT P6SM BKN040
     FM272000 21005KT P6SM VCTS BKN050CB
     FM280400 32005KT P6SM BKN250
     FM280900 32005KT 4SM BR FEW025 SCT100
     FM281200 33007KT P6SM FEW025 FEW100
     FM281600 32009KT P6SM FEW100=



000
FTUS41 KLWX 271700
TAFMTN
TAF
KMTN 271731Z 2718/2818 15004KT P6SM FEW050
     FM271900 17005KT P6SM FEW250
     FM280100 00000KT P6SM SCT250=



000
FTUS41 KLWX 271700
TAFIAD
TAF
KIAD 271731Z 2718/2824 25004KT P6SM SCT045
     FM280000 26004KT P6SM BKN050
     FM280800 34008KT P6SM FEW025 FEW100
     FM281700 35010KT P6SM FEW050=



000
FTUS41 KLWX 271100
TAFMTN
TAF
KMTN 271136Z 2712/2812 00000KT P6SM SKC
     FM271600 16005KT P6SM FEW050
     FM280300 VRB03KT P6SM BKN050
     FM280900 32006KT P6SM SCT090=



000
FTUS41 KLWX 271100
TAFBWI
TAF
KBWI 271136Z 2712/2818 00000KT P6SM SKC
     FM271600 25005KT P6SM FEW050
     FM280000 VRB05KT P6SM BKN050
     FM280500 25004KT P6SM SCT050
     FM280800 33008KT P6SM SCT090=



000
FTUS41 KLWX 271100
TAFDCA
TAF
KDCA 271136Z 2712/2812 VRB03KT P6SM SKC
     FM271600 17004KT P6SM FEW050
     FM280000 25005KT P6SM BKN050
     FM280500 VRB03KT P6SM SCT050
     FM280800 34009KT P6SM SCT090=



000
FTUS41 KLWX 271100
TAFMRB
TAF
KMRB 271136Z 2712/2812 00000KT 5SM BR SKC
     FM271230 00000KT P6SM FEW050
     FM272100 23004KT P6SM VCTS BKN050CB
     FM280000 20004KT P6SM BKN050
     FM280600 33008KT P6SM SCT090=



000
FTUS41 KLWX 271100
TAFIAD
TAF
KIAD 271136Z 2712/2818 00000KT P6SM SKC
     FM271600 30004KT P6SM FEW050
     FM280000 VRB05KT P6SM VCSH BKN050
     FM280400 29004KT P6SM SCT050
     FM280700 34008KT P6SM SCT090=



000
FTUS41 KLWX 271100
TAFCHO
TAF
KCHO 271136Z 2712/2812 00000KT 5SM BR SKC
     FM271230 VRB03KT P6SM FEW050
     FM280000 VRB03KT P6SM BKN050
     FM280700 34006KT P6SM SCT050=



000
FTUS41 KLWX 270900 AAA
TAFBWI
TAF AMD
KBWI 270900Z 2709/2812 VRB03KT P6SM FEW250
     FM271600 VRB03KT P6SM SCT050
     FM280400 VRB03KT P6SM BKN050
     FM280900 35006KT P6SM SCT090=



000
FTUS41 KLWX 270800 AAA
TAFDCA
TAF AMD
KDCA 270859Z 2709/2806 VRB04KT P6SM SKC
     FM272100 30005KT P6SM SCT050
     FM280500 30004KT P6SM BKN050=



000
FTUS41 KLWX 270800 AAA
TAFIAD
TAF AMD
KIAD 270859Z 2709/2812 VRB03KT 5SM BR SKC
     FM271200 30004KT P6SM FEW250
     FM271900 30003KT P6SM SCT050
     FM280400 31005KT P6SM BKN050
     FM280900 34006KT P6SM SCT090=



000
FTUS41 KLWX 270500
TAFDCA
TAF
KDCA 270536Z 2706/2806 VRB04KT P6SM SKC
     FM272100 30004KT P6SM SCT050
     FM280500 30004KT P6SM BKN050=



000
FTUS41 KLWX 270500
TAFMTN
TAF
KMTN 270536Z 2706/2806 NIL=



000
FTUS41 KLWX 270500
TAFIAD
TAF
KIAD 270536Z 2706/2812 VRB03KT P6SM SKC
     FM270900 VRB03KT 5SM BR SKC
     FM271200 VRB03KT P6SM FEW250
     FM271900 VRB03KT P6SM SCT050
     FM280400 31005KT P6SM BKN050
     FM280900 34006KT P6SM SCT090=



000
FTUS41 KLWX 270500
TAFBWI
TAF
KBWI 270536Z 2706/2812 VRB03KT P6SM SKC
     FM271600 VRB03KT P6SM SCT050
     FM280400 VRB03KT P6SM BKN050
     FM280900 35006KT P6SM SCT090=



000
FTUS41 KLWX 270500
TAFCHO
TAF
KCHO 270536Z 2706/2806 00000KT 3SM BR SKC
     FM271200 00000KT P6SM FEW250
     FM272100 00000KT P6SM SCT050
     FM280500 00000KT P6SM BKN050=



000
FTUS41 KLWX 270500
TAFMRB
TAF
KMRB 270536Z 2706/2806 00000KT 5SM BR FEW250
     FM271200 00000KT P6SM FEW250
     FM271500 00000KT P6SM SCT050
     FM272100 VRB04KT P6SM VCSH SCT050
     FM280000 27004KT P6SM BKN050=



000
FTUS41 KLWX 270000 AAA
TAFIAD
TAF AMD
KIAD 270005Z 2700/2806 VRB03KT P6SM SKC
     FM271500 00000KT P6SM FEW050
     FM280000 VRB03KT P6SM SCT250
     FM280400 33007KT P6SM SCT250=



000
FTUS41 KLWX 270000 AAA
TAFDCA
TAF AMD
KDCA 270005Z 2700/2724 VRB03KT P6SM FEW250
     FM271500 00000KT P6SM FEW050=



000
FTUS41 KLWX 270000 AAA
TAFCHO
TAF AMD
KCHO 270005Z 2700/2724 00000KT P6SM SKC
     FM270400 00000KT 5SM BR SKC
     FM270500 00000KT 3SM BR SKC
     FM271200 13004KT P6SM SKC
     FM271500 00000KT P6SM FEW050=



000
FTUS41 KLWX 270000 AAA
TAFMRB
TAF AMD
KMRB 270005Z 2700/2724 VRB03KT P6SM SKC
     FM270600 00000KT 5SM BR FEW250
     FM270700 00000KT P6SM FEW250
     FM271100 00000KT 5SM BR FEW250
     FM271200 00000KT P6SM FEW250
     FM271500 00000KT P6SM SCT050
     FM272300 32005KT P6SM BKN050=



000
FTUS41 KLWX 270000 AAA
TAFBWI
TAF AMD
KBWI 270005Z 2700/2806 VRB03KT P6SM FEW250
     FM271500 00000KT P6SM FEW050
     FM280000 00000KT P6SM SCT250=



000
FTUS41 KLWX 270000 AAA
TAFMTN
TAF AMD
KMTN 270005Z 2700/2724 16004KT P6SM FEW250
     FM270900 00000KT P6SM SKC
     FM271500 VRB03KT P6SM FEW050
      AMD NOT SKED 2702/2712=



000
FTUS41 KLWX 262100 AAA
TAFDCA
TAF AMD
KDCA 262108Z 2621/2718 09005KT P6SM FEW050 FEW250
     FM270200 15004KT P6SM SKC
     FM270800 00000KT P6SM SKC
     FM271500 00000KT P6SM FEW050=



000
FTUS41 KLWX 262100 AAA
TAFIAD
TAF AMD
KIAD 262108Z 2621/2724 12005KT P6SM FEW050 FEW250
     FM270800 00000KT P6SM FEW250
     FM271500 00000KT P6SM FEW050=



000
FTUS41 KLWX 262100 AAA
TAFBWI
TAF AMD
KBWI 262108Z 2621/2724 11005KT P6SM FEW050 FEW250
     FM270600 00000KT P6SM SKC
     FM271500 00000KT P6SM FEW050=



000
FTUS41 KLWX 261700
TAFMRB
TAF
KMRB 261739Z 2618/2718 15006KT P6SM FEW050 FEW250
     FM270600 00000KT 5SM BR FEW250
     FM271200 00000KT P6SM FEW250
     FM271500 VRB03KT P6SM SCT050=



000
FTUS41 KLWX 261700
TAFMTN
TAF
KMTN 261739Z 2618/2718 16005KT P6SM FEW050 FEW250
     FM262300 13004KT P6SM FEW050 FEW250
     FM270900 00000KT P6SM SKC
     FM271500 16005KT P6SM FEW050=



000
FTUS41 KLWX 261700
TAFDCA
TAF
KDCA 261739Z 2618/2718 09005KT P6SM SCT050 SCT250
     FM270000 15004KT P6SM SKC
     FM270800 00000KT P6SM SKC
     FM271500 16004KT P6SM FEW050=



000
FTUS41 KLWX 261700
TAFCHO
TAF
KCHO 261739Z 2618/2718 07005KT P6SM FEW050 FEW250
     FM270400 00000KT 5SM BR SKC
     FM270500 00000KT 3SM BR SKC
     FM271200 13004KT P6SM SKC
     FM271500 VRB03KT P6SM FEW050=



000
FTUS41 KLWX 261700
TAFBWI
TAF
KBWI 261739Z 2618/2724 10005KT P6SM SCT050
     FM270000 00000KT P6SM SKC
     FM271500 18004KT P6SM FEW050=



000
FTUS41 KLWX 261700
TAFIAD
TAF
KIAD 261739Z 2618/2724 06005KT P6SM FEW050 FEW250
     FM262300 16004KT P6SM FEW050 FEW250
     FM270800 00000KT P6SM FEW250
     FM271500 32004KT P6SM FEW050=



000
FTUS41 KLWX 261400 AAA
TAFDCA
TAF AMD
KDCA 261451Z 2615/2712 34005KT P6SM SKC
     FM261700 10007KT P6SM FEW050
     FM262200 17005KT P6SM SKC=



000
FTUS41 KLWX 261400 AAA
TAFBWI
TAF AMD
KBWI 261451Z 2615/2718 01003KT P6SM SKC
     FM261700 10006KT P6SM FEW050
     FM270000 17003KT P6SM SKC
     FM271600 25004KT P6SM SCT050=



000
FTUS41 KLWX 261400 AAA
TAFIAD
TAF AMD
KIAD 261451Z 2615/2718 29003KT P6SM SKC
     FM261700 16004KT P6SM FEW050
     FM270000 00000KT P6SM SKC
     FM271600 28006KT P6SM SCT050=



000
FTUS41 KLWX 261100
TAFBWI
TAF
KBWI 261135Z 2612/2718 01003KT P6SM SKC
     FM261700 14006KT P6SM FEW050
     FM270000 00000KT P6SM SKC
     FM271600 25004KT P6SM SCT050=



000
FTUS41 KLWX 261100
TAFCHO
TAF
KCHO 261135Z 2612/2712 00000KT P6SM SKC
     FM261500 14005KT P6SM FEW050
     FM270400 00000KT 4SM BR SKC=



000
FTUS41 KLWX 261100
TAFMTN
TAF
KMTN 261135Z 2612/2712 VRB03KT P6SM SKC
     FM261600 14006KT P6SM FEW050=



000
FTUS41 KLWX 261100
TAFDCA
TAF
KDCA 261135Z 2612/2712 01005KT P6SM SKC
     FM261700 10007KT P6SM FEW050
     FM262300 17005KT P6SM SKC=



000
FTUS41 KLWX 261100
TAFMRB
TAF
KMRB 261135Z 2612/2712 00000KT 5SM BR SKC
     FM261230 VRB03KT P6SM SKC
     FM261600 17005KT P6SM FEW050
     FM270400 00000KT 4SM BR SKC=



000
FTUS41 KLWX 261100
TAFIAD
TAF
KIAD 261135Z 2612/2718 33003KT P6SM SKC
     FM261700 16003KT P6SM FEW050
     FM270000 00000KT P6SM SKC
     FM271600 28006KT P6SM SCT050=



000
FTUS41 KLWX 260800 AAA
TAFBWI
TAF AMD
KBWI 260859Z 2609/2712 VRB03KT P6SM FEW250
     FM261600 07005KT P6SM FEW050 FEW250=



000
FTUS41 KLWX 260800 AAA
TAFDCA
TAF AMD
KDCA 260859Z 2609/2706 VRB03KT P6SM FEW250
     FM261600 07005KT P6SM FEW050 FEW250=



000
FTUS41 KLWX 260800 AAA
TAFIAD
TAF AMD
KIAD 260859Z 2609/2712 VRB03KT 5SM BR SKC
     FM261200 VRB03KT P6SM SKC
     FM261600 05005KT P6SM FEW050 FEW250=



000
FTUS41 KLWX 260500
TAFIAD
TAF
KIAD 260532Z 2606/2712 VRB03KT P6SM FEW250
     FM260900 VRB03KT 5SM BR SKC
     FM261200 VRB03KT P6SM SKC
     FM261600 05005KT P6SM FEW050 FEW250=



000
FTUS41 KLWX 260500
TAFDCA
TAF
KDCA 260532Z 2606/2706 VRB03KT P6SM FEW250
     FM261600 07005KT P6SM FEW050 FEW250=



000
FTUS41 KLWX 260500
TAFMTN
TAF
KMTN 260532Z 2606/2706 NIL=



000
FTUS41 KLWX 260500
TAFMRB
TAF
KMRB 260532Z 2606/2706 00000KT 5SM BR SKC
     FM260900 00000KT 3SM BR FEW050
     FM261200 00000KT 5SM BR FEW050
     FM261300 00000KT P6SM FEW050=



000
FTUS41 KLWX 260500
TAFBWI
TAF
KBWI 260532Z 2606/2712 VRB03KT P6SM FEW250
     FM261600 07005KT P6SM FEW050 FEW250=



000
FTUS41 KLWX 260500
TAFCHO
TAF
KCHO 260532Z 2606/2706 00000KT 5SM BR SKC
     FM260900 VRB03KT 1SM BR FEW050
     FM261200 00000KT P6SM FEW050=



000
FTUS41 KLWX 252300 RRA
TAFCHO
TAF
KCHO 252341Z 2600/2624 07006KT P6SM SKC
     FM260600 VRB03KT 4SM BR SKC
     FM260800 VRB03KT 2SM BR FEW200
     FM261100 00000KT P6SM FEW200
     FM261600 07004KT P6SM FEW050=



000
FTUS41 KLWX 252300 RRA
TAFIAD
TAF
KIAD 252341Z 2600/2706 10004KT P6SM FEW050 SCT250
     FM260400 VRB03KT P6SM FEW250
     FM262000 18005KT P6SM SKC=



000
FTUS41 KLWX 252300 RRA
TAFDCA
TAF
KDCA 252341Z 2600/2624 09005KT P6SM FEW050 SCT250
     FM261500 04004KT P6SM FEW050
     FM262000 17004KT P6SM SKC=



000
FTUS41 KLWX 252300 RRA
TAFMRB
TAF
KMRB 252341Z 2600/2624 10003KT P6SM SKC
     FM260600 VRB03KT 3SM BR SKC
     FM260800 29004KT 5SM BR FEW200
     FM261000 00000KT P6SM FEW200
     FM261600 VRB03KT P6SM FEW050=



000
FTUS41 KLWX 252300 RRA
TAFBWI
TAF
KBWI 252341Z 2600/2706 10005KT P6SM FEW050 SCT250
     FM260600 29004KT P6SM SCT200
     FM261200 00000KT P6SM FEW200
     FM262000 17004KT P6SM SKC=



000
FTUS41 KLWX 252300 RRA
TAFMTN
TAF
KMTN 252341Z 2600/2624 05004KT P6SM SCT070 SCT250
     FM260300 VRB04KT P6SM FEW060 SCT250
     FM261700 16004KT P6SM FEW050
      AMD NOT SKED 2602/2612=



000
FTUS41 KLWX 252100 AAA
TAFDCA
TAF AMD
KDCA 252101Z 2521/2618 05007KT P6SM FEW060 SCT250
     FM260200 VRB04KT P6SM FEW250
     FM261500 15003KT P6SM FEW050=



000
FTUS41 KLWX 252100 AAA
TAFIAD
TAF AMD
KIAD 252101Z 2521/2624 06005KT P6SM FEW060 SCT250
     FM260800 00000KT 6SM MIFG FEW250
     FM261200 VRB03KT P6SM SKC=



000
FTUS41 KLWX 252100 AAA
TAFBWI
TAF AMD
KBWI 252101Z 2521/2624 09007KT P6SM FEW060 SCT250
     FM260200 16004KT P6SM FEW250
     FM260600 00000KT P6SM FEW250
     FM261600 16006KT P6SM FEW050=



000
FTUS41 KLWX 251700
TAFCHO
TAF
KCHO 251739Z 2518/2618 05008KT P6SM FEW050
     FM252200 05005KT P6SM FEW250
     FM260600 00000KT 3SM BR FEW250
     FM260800 00000KT 2SM BR FEW250
     FM261200 00000KT P6SM FEW250
     FM261600 VRB03KT P6SM FEW050=



000
FTUS41 KLWX 251700
TAFBWI
TAF
KBWI 251739Z 2518/2624 08008KT P6SM FEW050
     FM252200 09005KT P6SM FEW250
     FM260200 16004KT P6SM FEW250
     FM260600 00000KT P6SM FEW250
     FM261600 16006KT P6SM FEW050=



000
FTUS41 KLWX 251700
TAFMRB
TAF
KMRB 251739Z 2518/2618 09004KT P6SM SCT050
     FM252200 10004KT P6SM SCT250
     FM260600 VRB03KT 3SM BR FEW250
     FM260800 00000KT 5SM BR FEW250
     FM261200 VRB03KT P6SM SKC=



000
FTUS41 KLWX 251700
TAFDCA
TAF
KDCA 251739Z 2518/2618 06008KT P6SM FEW050
     FM252200 10005KT P6SM FEW250
     FM260200 VRB04KT P6SM FEW250
     FM261500 15003KT P6SM FEW050=



000
FTUS41 KLWX 251700
TAFMTN
TAF
KMTN 251739Z 2518/2618 07006KT P6SM FEW050
     FM252200 VRB03KT P6SM FEW250
     FM261600 00000KT P6SM FEW050=



000
FTUS41 KLWX 251700
TAFIAD
TAF
KIAD 251739Z 2518/2624 08006KT P6SM SCT050
     FM252200 08004KT P6SM FEW250
     FM260800 00000KT 6SM MIFG FEW250
     FM261200 VRB03KT P6SM SKC=



000
FTUS41 KLWX 251600 AAA
TAFDCA
TAF AMD
KDCA 251610Z 2516/2612 06008KT P6SM FEW045
     FM260000 11004KT P6SM FEW150=



000
FTUS41 KLWX 251600 AAA
TAFBWI
TAF AMD
KBWI 251610Z 2516/2618 10006KT P6SM FEW045
     FM252200 11005KT P6SM FEW150
     FM260300 00000KT P6SM FEW200
     FM261400 09004KT P6SM SKC=



000
FTUS41 KLWX 251600 AAA
TAFIAD
TAF AMD
KIAD 251610Z 2516/2618 05004KT P6SM SCT040
     FM260100 VRB03KT P6SM FEW150
     FM260600 00000KT 5SM MIFG SKC
     FM260900 00000KT 2SM BR SKC
     FM261200 VRB03KT P6SM SKC=



000
FTUS41 KLWX 251100
TAFMRB
TAF
KMRB 251139Z 2512/2612 00000KT 1/2SM FG FEW150
     FM251300 10005KT P6SM FEW150
     FM260600 00000KT 5SM BR SKC=



000
FTUS41 KLWX 251100
TAFIAD
TAF
KIAD 251139Z 2512/2618 VRB03KT P6SM FEW250
     FM251300 03004KT P6SM FEW250
     FM251900 09006KT P6SM FEW150
     FM260100 VRB03KT P6SM FEW150
     FM260600 00000KT 5SM MIFG SKC
     FM260900 00000KT 2SM BR SKC
     FM261200 VRB03KT P6SM SKC=



000
FTUS41 KLWX 251100
TAFCHO
TAF
KCHO 251139Z 2512/2612 00000KT 5SM BR FEW250
     FM251230 VRB03KT P6SM FEW250
     FM251500 05007KT P6SM FEW200
     FM260000 VRB03KT P6SM FEW150
     FM260600 00000KT 5SM BR SKC
     FM260900 VRB03KT 2SM BR FEW250=



000
FTUS41 KLWX 251100
TAFBWI
TAF
KBWI 251139Z 2512/2618 05004KT P6SM SKC
     FM252200 11005KT P6SM FEW150
     FM260300 00000KT P6SM FEW200
     FM261400 09004KT P6SM SKC=



000
FTUS41 KLWX 251100
TAFMTN
TAF
KMTN 251139Z 2512/2612 04004KT P6SM SKC
     FM251900 10006KT P6SM SKC
     FM260400 00000KT P6SM FEW200=



000
FTUS41 KLWX 251100
TAFDCA
TAF
KDCA 251139Z 2512/2612 04004KT P6SM FEW250
     FM251500 07008KT P6SM FEW200
     FM260000 11004KT P6SM FEW150=



000
FTUS41 KLWX 250800 AAA
TAFBWI
TAF AMD
KBWI 250858Z 2509/2612 00000KT P6SM FEW050
     FM251400 06006KT P6SM SKC
     FM252300 12004KT P6SM FEW050
     FM260300 00000KT P6SM FEW050=



000
FTUS41 KLWX 250800 AAA
TAFDCA
TAF AMD
KDCA 250858Z 2509/2606 00000KT P6SM FEW050
     FM251400 06007KT P6SM FEW050
     FM260100 VRB03KT P6SM FEW050=



000
FTUS41 KLWX 250800 AAA
TAFIAD
TAF AMD
KIAD 250857Z 2509/2612 00000KT 3SM BR FEW050
     FM251200 VRB03KT 5SM BR FEW050
     FM251300 03004KT P6SM FEW050
     FM251900 09006KT P6SM FEW050
     FM260100 00000KT P6SM FEW050=



000
FTUS41 KLWX 250800 AAA
TAFMRB
TAF AMD
KMRB 250817Z 2508/2606 00000KT 1/2SM FG SCT003
     FM251200 00000KT 5SM BR SCT050
     FM251300 00000KT P6SM SCT050=



000
FTUS41 KLWX 250500
TAFCHO
TAF
KCHO 250532Z 2506/2606 00000KT 2SM BR FEW050
     FM250900 00000KT 1SM BR FEW050
     FM251200 00000KT 5SM BR SCT050
     FM251300 VRB03KT P6SM SCT050
     FM251500 05007KT P6SM FEW050
     FM260000 VRB03KT P6SM FEW050=



000
FTUS41 KLWX 250500
TAFBWI
TAF
KBWI 250532Z 2506/2612 00000KT P6SM SCT050
     FM251400 06006KT P6SM SKC
     FM252300 12004KT P6SM FEW050
     FM260300 00000KT P6SM FEW050=



000
FTUS41 KLWX 250500
TAFIAD
TAF
KIAD 250532Z 2506/2612 00000KT 3SM BR SCT050
     FM251200 VRB03KT 5SM BR FEW050
     FM251300 03004KT P6SM FEW050
     FM251900 09006KT P6SM FEW050
     FM260100 00000KT P6SM FEW050=



000
FTUS41 KLWX 250500
TAFMTN
TAF
KMTN 250532Z 2506/2606 NIL=



000
FTUS41 KLWX 250500
TAFMRB
TAF
KMRB 250532Z 2506/2606 00000KT 2SM BR SCT050
     FM250900 00000KT 1SM BR SCT050
     FM251200 00000KT 5SM BR SCT050
     FM251300 00000KT P6SM SCT050=



000
FTUS41 KLWX 250500
TAFDCA
TAF
KDCA 250532Z 2506/2606 00000KT P6SM SCT050
     FM251400 06007KT P6SM FEW050
     FM260100 VRB03KT P6SM FEW050=



000
FTUS41 KLWX 250400 AAA
TAFMRB
TAF AMD
KMRB 250412Z 2504/2524 00000KT 3SM BR FEW060
     FM250600 00000KT 3SM BR SCT250
     FM251300 00000KT P6SM FEW250
     FM251900 11006KT P6SM FEW040 FEW250=



000
FTUS41 KLWX 250400 AAA
TAFCHO
TAF AMD
KCHO 250411Z 2504/2524 VRB03KT 3SM BR FEW060
     FM250900 VRB03KT 2SM BR SCT003
     FM251100 00000KT 5SM BR FEW250
     FM251300 00000KT P6SM FEW250
     FM251600 05006KT P6SM FEW040 FEW250=



    US Dept of Commerce
    National Oceanic and Atmospheric Administration
    National Weather Service
    1325 East West Highway
    Silver Spring, MD 20910
    Page Author: NWS Internet Services Team
Disclaimer
Information Quality
Credits
Glossary
Privacy Policy
Freedom of Information Act (FOIA)
About Us
Career Opportunities